createdAt,value
2018-12-25T00:02:15.477Z,101996.33
2018-12-25T00:04:44.980Z,101997.72
2018-12-25T00:07:14.489Z,102000.06
2018-12-25T00:09:43.969Z,101997.03
2018-12-25T00:12:13.499Z,102001.73
2018-12-25T00:14:42.973Z,102000.61
2018-12-25T00:17:12.197Z,102002.30
2018-12-25T00:19:41.796Z,101992.23
2018-12-25T00:22:11.307Z,102003.23
2018-12-25T00:24:40.495Z,102002.75
2018-12-25T00:27:09.984Z,102004.14
2018-12-25T00:29:39.438Z,101995.38
2018-12-25T00:32:08.911Z,102006.86
2018-12-25T00:34:38.352Z,102003.27
2018-12-25T00:37:07.827Z,102000.34
2018-12-25T00:39:39.084Z,102000.73
2018-12-25T00:42:08.565Z,102000.38
2018-12-25T00:47:32.630Z,102015.17
2018-12-25T00:50:01.847Z,102014.48
2018-12-25T00:52:31.042Z,102022.63
2018-12-25T00:55:00.262Z,102009.14
2018-12-25T00:57:30.287Z,102017.92
2018-12-25T00:59:59.828Z,102021.05
2018-12-25T01:02:29.571Z,102008.80
2018-12-25T01:04:59.147Z,102005.59
2018-12-25T01:07:28.964Z,102003.10
2018-12-25T01:09:58.750Z,101997.39
2018-12-25T01:12:27.943Z,101995.06
2018-12-25T01:14:57.203Z,101985.50
2018-12-25T01:17:26.647Z,101984.94
2018-12-25T01:19:56.412Z,101980.44
2018-12-25T01:22:25.626Z,101977.56
2018-12-25T01:24:54.829Z,101979.96
2018-12-25T01:27:24.021Z,101977.12
2018-12-25T01:29:53.790Z,101975.74
2018-12-25T01:32:23.242Z,101992.67
2018-12-25T01:34:52.719Z,101990.66
2018-12-25T01:37:21.918Z,101993.77
2018-12-25T01:39:51.774Z,101996.44
2018-12-25T01:42:21.242Z,101997.29
2018-12-25T01:44:50.786Z,102002.42
2018-12-25T01:47:20.227Z,102000.89
2018-12-25T01:49:49.695Z,101996.73
2018-12-25T01:52:19.160Z,102001.91
2018-12-25T01:54:48.998Z,102004.47
2018-12-25T01:57:18.813Z,102010.38
2018-12-25T01:59:48.036Z,102007.70
2018-12-25T02:02:17.238Z,102013.45
2018-12-25T02:04:46.433Z,102011.63
2018-12-25T02:07:15.653Z,102013.02
2018-12-25T02:09:45.812Z,102020.88
2018-12-25T02:12:15.013Z,102019.90
2018-12-25T02:14:44.456Z,102025.89
2018-12-25T02:17:14.263Z,102025.89
2018-12-25T02:19:43.727Z,102021.64
2018-12-25T02:22:13.561Z,102021.52
2018-12-25T02:27:31.226Z,102021.88
2018-12-25T02:30:00.690Z,102035.12
2018-12-25T02:32:30.161Z,102031.03
2018-12-25T02:34:59.602Z,102032.48
2018-12-25T02:37:28.817Z,102030.00
2018-12-25T02:39:58.291Z,102019.17
2018-12-25T02:42:28.080Z,102013.73
2018-12-25T02:44:57.525Z,102009.87
2018-12-25T02:47:27.410Z,102011.80
2018-12-25T02:49:57.232Z,102003.97
2018-12-25T02:52:26.448Z,101998.30
2018-12-25T02:54:55.654Z,101993.98
2018-12-25T02:57:24.873Z,101990.45
2018-12-25T02:59:54.598Z,101994.01
2018-12-25T03:02:23.814Z,101985.98
2018-12-25T03:04:53.302Z,101986.47
2018-12-25T03:07:22.603Z,101984.12
2018-12-25T03:09:52.104Z,101974.12
2018-12-25T03:12:21.721Z,101973.45
2018-12-25T03:14:50.922Z,101970.55
2018-12-25T03:22:30.310Z,101962.47
2018-12-25T03:24:59.511Z,101960.03
2018-12-25T03:27:29.000Z,101962.71
2018-12-25T03:29:58.449Z,101961.26
2018-12-25T03:32:27.947Z,101959.95
2018-12-25T03:34:57.417Z,101950.03
2018-12-25T03:37:26.863Z,101954.38
2018-12-25T03:39:56.077Z,101954.12
2018-12-25T03:42:25.261Z,101947.61
2018-12-25T03:44:55.099Z,101942.91
2018-12-25T03:47:24.552Z,101935.70
2018-12-25T03:49:53.780Z,101944.58
2018-12-25T03:52:23.229Z,101939.58
2018-12-25T03:54:52.714Z,101942.09
2018-12-25T03:57:22.159Z,101943.41
2018-12-25T03:59:51.689Z,101933.68
2018-12-25T04:02:21.421Z,101930.81
2018-12-25T04:04:50.629Z,101933.07
2018-12-25T04:07:19.857Z,101939.92
2018-12-25T04:09:49.325Z,101939.58
2018-12-25T04:12:18.790Z,101941.59
2018-12-25T04:14:47.991Z,101932.44
2018-12-25T04:17:17.759Z,101931.15
2018-12-25T04:19:47.254Z,101932.30
2018-12-25T04:22:16.489Z,101932.59
2018-12-25T04:24:45.987Z,101931.36
2018-12-25T04:27:15.463Z,101925.51
2018-12-25T04:29:45.132Z,101927.17
2018-12-25T04:32:14.665Z,101928.86
2018-12-25T04:34:44.155Z,101921.44
2018-12-25T04:37:15.671Z,101930.62
2018-12-25T04:39:45.146Z,101927.16
2018-12-25T04:42:14.407Z,101930.30
2018-12-25T04:44:43.903Z,101932.30
2018-12-25T04:50:01.589Z,101920.91
2018-12-25T04:52:31.010Z,101918.00
2018-12-25T04:57:34.779Z,101920.98
2018-12-25T05:00:04.606Z,101926.84
2018-12-25T05:02:34.331Z,101932.67
2018-12-25T05:05:04.091Z,101932.41
2018-12-25T05:07:33.291Z,101932.23
2018-12-25T05:10:02.481Z,101930.62
2018-12-25T05:12:31.947Z,101930.46
2018-12-25T05:15:01.721Z,101920.19
2018-12-25T05:17:30.918Z,101922.20
2018-12-25T05:20:00.401Z,101924.53
2018-12-25T05:22:29.621Z,101921.86
2018-12-25T05:24:58.795Z,101921.86
2018-12-25T05:27:28.011Z,101919.23
2018-12-25T05:29:57.466Z,101925.27
2018-12-25T05:32:26.956Z,101926.94
2018-12-25T05:34:56.948Z,101921.38
2018-12-25T05:37:26.441Z,101923.94
2018-12-25T05:39:55.923Z,101918.77
2018-12-25T05:42:25.397Z,101916.56
2018-12-25T05:44:55.126Z,101924.13
2018-12-25T05:47:24.723Z,101917.63
2018-12-25T05:49:53.977Z,101915.47
2018-12-25T05:52:23.795Z,101919.98
2018-12-25T05:54:53.374Z,101919.81
2018-12-25T05:57:22.585Z,101920.48
2018-12-25T05:59:52.022Z,101923.34
2018-12-25T06:02:21.289Z,101927.00
2018-12-25T06:05:09.466Z,101929.38
2018-12-25T06:07:38.950Z,101932.73
2018-12-25T06:10:08.140Z,101928.87
2018-12-25T06:12:37.762Z,101929.06
2018-12-25T06:15:07.219Z,101936.76
2018-12-25T06:17:36.699Z,101938.75
2018-12-25T06:20:06.338Z,101932.73
2018-12-25T06:22:36.132Z,101935.91
2018-12-25T06:25:05.576Z,101935.77
2018-12-25T06:27:35.047Z,101935.39
2018-12-25T06:30:04.358Z,101936.55
2018-12-25T06:32:33.542Z,101936.55
2018-12-25T06:35:03.324Z,101927.00
2018-12-25T06:37:32.511Z,101926.34
2018-12-25T06:40:02.270Z,101932.55
2018-12-25T06:42:31.459Z,101940.46
2018-12-25T06:45:00.663Z,101942.97
2018-12-25T06:47:29.862Z,101942.47
2018-12-25T06:49:59.071Z,101940.42
2018-12-25T06:52:28.567Z,101939.61
2018-12-25T06:54:57.772Z,101933.58
2018-12-25T06:57:26.999Z,101934.25
2018-12-25T06:59:56.640Z,101934.13
2018-12-25T07:02:25.843Z,101936.13
2018-12-25T07:04:55.057Z,101925.73
2018-12-25T07:07:24.575Z,101929.92
2018-12-25T07:09:54.201Z,101924.06
2018-12-25T07:12:23.745Z,101924.06
2018-12-25T07:14:52.964Z,101924.87
2018-12-25T07:17:22.416Z,101928.94
2018-12-25T07:19:51.738Z,101930.11
2018-12-25T07:22:21.208Z,101938.81
2018-12-25T07:24:50.693Z,101936.63
2018-12-25T07:27:20.430Z,101928.41
2018-12-25T07:30:08.980Z,101936.14
2018-12-25T07:32:38.461Z,101929.12
2018-12-25T07:35:07.944Z,101927.73
2018-12-25T07:37:37.406Z,101926.40
2018-12-25T07:40:06.834Z,101937.16
2018-12-25T07:42:36.060Z,101935.64
2018-12-25T07:45:05.654Z,101934.13
2018-12-25T07:47:35.169Z,101931.09
2018-12-25T07:50:04.571Z,101923.41
2018-12-25T07:52:34.073Z,101924.75
2018-12-25T07:55:03.546Z,101916.88
2018-12-25T07:57:33.032Z,101914.02
2018-12-25T08:00:02.259Z,101912.00
2018-12-25T08:02:32.067Z,101909.28
2018-12-25T08:05:01.528Z,101906.27
2018-12-25T08:07:31.054Z,101912.48
2018-12-25T08:10:00.276Z,101904.09
2018-12-25T08:12:29.757Z,101900.38
2018-12-25T08:14:58.930Z,101909.27
2018-12-25T08:17:28.833Z,101903.91
2018-12-25T08:19:58.029Z,101899.52
2018-12-25T08:22:27.547Z,101903.22
2018-12-25T08:24:57.026Z,101904.56
2018-12-25T08:27:26.518Z,101908.41
2018-12-25T08:29:56.080Z,101917.43
2018-12-25T08:32:25.301Z,101920.48
2018-12-25T08:37:42.699Z,101898.67
2018-12-25T08:40:11.906Z,101926.19
2018-12-25T08:42:41.691Z,101923.81
2018-12-25T08:45:11.175Z,101923.77
2018-12-25T08:47:40.397Z,101923.94
2018-12-25T08:50:10.935Z,101926.80
2018-12-25T08:52:40.143Z,101923.58
2018-12-25T08:55:09.325Z,101930.75
2018-12-25T08:57:38.831Z,101927.88
2018-12-25T09:00:11.295Z,101926.21
2018-12-25T09:02:40.778Z,101926.05
2018-12-25T09:05:10.540Z,101922.72
2018-12-25T09:07:40.099Z,101920.94
2018-12-25T09:10:09.289Z,101919.13
2018-12-25T09:12:38.794Z,101918.35
2018-12-25T09:15:08.289Z,101925.59
2018-12-25T09:17:37.866Z,101930.46
2018-12-25T09:20:07.359Z,101941.38
2018-12-25T09:22:36.847Z,101940.84
2018-12-25T09:25:06.683Z,101946.07
2018-12-25T09:27:36.158Z,101955.64
2018-12-25T09:30:44.944Z,101947.63
2018-12-25T09:33:14.130Z,101946.95
2018-12-25T09:35:45.628Z,101947.30
2018-12-25T09:38:15.140Z,101949.33
2018-12-25T09:40:44.709Z,101953.70
2018-12-25T09:43:13.908Z,101955.52
2018-12-25T09:45:43.436Z,101958.38
2018-12-25T09:48:13.420Z,101960.91
2018-12-25T09:50:44.140Z,101955.36
2018-12-25T09:53:14.962Z,101955.17
2018-12-25T09:55:44.558Z,101947.77
2018-12-25T09:58:14.303Z,101946.08
2018-12-25T10:01:02.862Z,101944.89
2018-12-25T10:03:32.687Z,101946.91
2018-12-25T10:06:02.177Z,101950.20
2018-12-25T10:08:31.622Z,101953.73
2018-12-25T10:11:44.387Z,101953.20
2018-12-25T10:14:11.880Z,101952.37
2018-12-25T10:16:41.370Z,101954.56
2018-12-25T10:19:10.834Z,101956.57
2018-12-25T10:21:40.045Z,101950.84
2018-12-25T10:24:09.835Z,101954.52
2018-12-25T10:26:39.875Z,101955.66
2018-12-25T10:29:09.332Z,101952.32
2018-12-25T10:31:38.575Z,101943.91
2018-12-25T10:34:08.023Z,101939.73
2018-12-25T10:36:37.519Z,101954.17
2018-12-25T10:39:07.564Z,101943.92
2018-12-25T10:41:37.342Z,101938.22
2018-12-25T10:46:55.447Z,101946.42
2018-12-25T10:49:24.632Z,101943.65
2018-12-25T10:51:54.135Z,101945.84
2018-12-25T10:54:23.625Z,101942.94
2018-12-25T10:56:53.392Z,101939.22
2018-12-25T10:59:22.993Z,101935.39
2018-12-25T11:01:52.744Z,101933.76
2018-12-25T11:04:21.971Z,101924.34
2018-12-25T11:06:51.889Z,101920.09
2018-12-25T11:09:21.105Z,101935.19
2018-12-25T11:11:50.849Z,101937.84
2018-12-25T11:14:20.058Z,101944.86
2018-12-25T11:16:49.791Z,101952.22
2018-12-25T11:19:19.274Z,101943.91
2018-12-25T11:21:48.789Z,101945.88
2018-12-25T11:24:18.310Z,101955.00
2018-12-25T11:26:47.924Z,101967.12
2018-12-25T11:29:17.159Z,101963.39
2018-12-25T11:31:46.932Z,101972.36
2018-12-25T11:34:16.760Z,101974.89
2018-12-25T11:36:46.003Z,101974.02
2018-12-25T11:39:15.486Z,101966.08
2018-12-25T11:41:44.686Z,101963.50
2018-12-25T11:44:13.911Z,101967.94
2018-12-25T11:46:43.624Z,101962.70
2018-12-25T11:49:13.123Z,101958.00
2018-12-25T11:51:42.341Z,101956.05
2018-12-25T11:54:31.462Z,101954.16
2018-12-25T11:57:00.915Z,101944.89
2018-12-25T11:59:30.474Z,101937.77
2018-12-25T12:02:02.725Z,101943.53
2018-12-25T12:04:32.802Z,101937.50
2018-12-25T12:07:02.251Z,101928.87
2018-12-25T12:09:31.759Z,101922.59
2018-12-25T12:12:01.361Z,101923.75
2018-12-25T12:14:30.920Z,101925.25
2018-12-25T12:17:00.412Z,101920.25
2018-12-25T12:19:29.881Z,101922.78
2018-12-25T12:21:59.398Z,101917.55
2018-12-25T12:24:28.608Z,101921.64
2018-12-25T12:29:32.829Z,101925.31
2018-12-25T12:35:03.620Z,101928.80
2018-12-25T12:37:33.107Z,101930.59
2018-12-25T12:40:02.546Z,101924.36
2018-12-25T12:42:32.043Z,101926.91
2018-12-25T12:45:01.502Z,101936.44
2018-12-25T12:47:31.385Z,101934.63
2018-12-25T12:50:00.587Z,101930.60
2018-12-25T12:52:30.061Z,101935.33
2018-12-25T12:54:59.271Z,101936.22
2018-12-25T12:57:29.402Z,101938.37
2018-12-25T12:59:58.835Z,101936.62
2018-12-25T13:02:28.303Z,101936.68
2018-12-25T13:04:57.738Z,101948.91
2018-12-25T13:07:27.009Z,101947.86
2018-12-25T13:09:56.194Z,101945.72
2018-12-25T13:12:25.634Z,101953.11
2018-12-25T13:14:55.092Z,101953.81
2018-12-25T13:17:24.272Z,101954.62
2018-12-25T13:19:53.815Z,101957.84
2018-12-25T13:22:23.318Z,101959.25
2018-12-25T13:24:53.132Z,101967.98
2018-12-25T13:27:22.862Z,101965.56
2018-12-25T13:29:52.327Z,101957.40
2018-12-25T13:32:22.056Z,101960.25
2018-12-25T13:34:51.289Z,101955.20
2018-12-25T13:37:21.652Z,101956.39
2018-12-25T13:39:51.151Z,101957.63
2018-12-25T13:42:20.332Z,101949.64
2018-12-25T13:44:49.804Z,101958.61
2018-12-25T13:47:19.238Z,101958.46
2018-12-25T13:49:48.458Z,101959.88
2018-12-25T13:52:17.919Z,101962.53
2018-12-25T13:54:47.139Z,101959.77
2018-12-25T13:57:16.923Z,101968.05
2018-12-25T13:59:46.143Z,101960.08
2018-12-25T14:02:15.584Z,101964.92
2018-12-25T14:04:44.784Z,101970.73
2018-12-25T14:07:14.234Z,101965.89
2018-12-25T14:09:43.885Z,101970.43
2018-12-25T14:12:14.018Z,101977.86
2018-12-25T14:28:40.362Z,101968.59
2018-12-25T14:31:09.972Z,101974.12
2018-12-25T14:33:39.436Z,101971.96
2018-12-25T14:36:08.647Z,101981.39
2018-12-25T14:38:38.352Z,101973.66
2018-12-25T14:41:09.407Z,101978.20
2018-12-25T14:46:08.266Z,101976.00
2018-12-25T14:48:37.822Z,101973.72
2018-12-25T14:51:07.602Z,101974.22
2018-12-25T14:53:56.309Z,101971.41
2018-12-25T14:56:25.802Z,101976.31
2018-12-25T14:58:55.567Z,101974.18
2018-12-25T15:01:25.050Z,101960.56
2018-12-25T15:03:54.239Z,101958.87
2018-12-25T15:06:23.765Z,101954.07
2018-12-25T15:08:53.213Z,101957.67
2018-12-25T15:11:22.704Z,101958.67
2018-12-25T15:13:51.899Z,101952.31
2018-12-25T15:19:16.124Z,101942.45
2018-12-25T15:21:45.929Z,101940.14
2018-12-25T15:24:15.457Z,101937.16
2018-12-25T15:26:45.216Z,101931.80
2018-12-25T15:29:14.455Z,101926.95
2018-12-25T15:31:44.026Z,101926.80
2018-12-25T15:34:13.280Z,101923.64
2018-12-25T15:36:43.054Z,101926.14
2018-12-25T15:39:14.543Z,101926.14
2018-12-25T15:41:43.993Z,101932.02
2018-12-25T15:44:13.216Z,101939.24
2018-12-25T15:46:43.240Z,101938.22
2018-12-25T15:49:12.777Z,101937.21
2018-12-25T15:51:43.011Z,101933.14
2018-12-25T15:54:12.868Z,101933.77
2018-12-25T15:56:42.440Z,101924.99
2018-12-25T15:59:11.716Z,101922.80
2018-12-25T16:01:40.913Z,101917.89
2018-12-25T16:04:10.439Z,101910.61
2018-12-25T16:06:39.570Z,101905.55
2018-12-25T16:09:08.789Z,101905.66
2018-12-25T16:11:37.964Z,101904.58
2018-12-25T16:14:07.190Z,101906.37
2018-12-25T16:16:36.372Z,101898.73
2018-12-25T16:19:05.837Z,101896.56
2018-12-25T16:21:35.576Z,101860.11
2018-12-25T16:24:04.823Z,101896.39
2018-12-25T16:26:34.282Z,101898.13
2018-12-25T16:29:03.765Z,101900.81
2018-12-25T16:31:33.311Z,101899.55
2018-12-25T16:34:02.834Z,101898.77
2018-12-25T16:36:32.040Z,101893.09
2018-12-25T16:39:01.893Z,101898.08
2018-12-25T16:41:32.879Z,101899.38
2018-12-25T16:46:37.834Z,101894.44
2018-12-25T16:49:26.399Z,101897.14
2018-12-25T16:51:55.603Z,101904.11
2018-12-25T16:54:25.083Z,101903.15
2018-12-25T16:56:54.299Z,101905.16
2018-12-25T16:59:23.516Z,101910.04
2018-12-25T17:01:53.005Z,101902.80
2018-12-25T17:04:22.299Z,101914.67
2018-12-25T17:06:51.484Z,101914.16
2018-12-25T17:09:20.987Z,101911.48
2018-12-25T17:11:50.183Z,101899.08
2018-12-25T17:14:19.695Z,101901.53
2018-12-25T17:16:49.421Z,101905.56
2018-12-25T17:19:18.674Z,101903.79
2018-12-25T17:21:48.122Z,101900.99
2018-12-25T17:24:17.370Z,101896.88
2018-12-25T17:26:46.817Z,101898.43
2018-12-25T17:29:16.039Z,101904.84
2018-12-25T17:31:45.810Z,101900.55
2018-12-25T17:34:15.287Z,101899.67
2018-12-25T17:36:44.730Z,101906.55
2018-12-25T17:39:21.310Z,101906.59
2018-12-25T17:41:51.190Z,101906.30
2018-12-25T17:44:20.453Z,101905.80
2018-12-25T17:46:49.683Z,101906.98
2018-12-25T17:49:18.910Z,101907.70
2018-12-25T17:51:48.397Z,101904.16
2018-12-25T17:54:17.620Z,101912.10
2018-12-25T17:56:47.159Z,101918.11
2018-12-25T17:59:16.642Z,101920.65
2018-12-25T18:01:46.097Z,101922.18
2018-12-25T18:04:15.891Z,101922.67
2018-12-25T18:06:45.083Z,101925.91
2018-12-25T18:09:14.893Z,101920.75
2018-12-25T18:11:44.105Z,101914.08
2018-12-25T18:14:13.880Z,101923.16
2018-12-25T18:16:44.244Z,101923.28
2018-12-25T18:19:13.452Z,101921.91
2018-12-25T18:21:43.207Z,101917.25
2018-12-25T18:24:19.161Z,101916.80
2018-12-25T18:27:02.695Z,101918.20
2018-12-25T18:29:32.533Z,101921.25
2018-12-25T18:32:01.989Z,101916.14
2018-12-25T18:34:32.215Z,101910.34
2018-12-25T18:37:01.689Z,101906.72
2018-12-25T18:39:31.567Z,101903.32
2018-12-25T18:42:01.037Z,101902.30
2018-12-25T18:44:30.592Z,101900.91
2018-12-25T18:47:00.331Z,101892.48
2018-12-25T18:49:29.859Z,101892.13
2018-12-25T18:51:59.349Z,101884.98
2018-12-25T18:54:47.742Z,101886.69
2018-12-25T18:57:16.937Z,101882.25
2018-12-25T18:59:46.163Z,101879.80
2018-12-25T19:02:15.363Z,101876.17
2018-12-25T19:04:44.961Z,101884.03
2018-12-25T19:07:15.085Z,101877.67
2018-12-25T19:09:44.721Z,101879.91
2018-12-25T19:12:14.454Z,101875.77
2018-12-25T19:15:09.707Z,101868.61
2018-12-25T19:17:38.896Z,101862.95
2018-12-25T19:52:11.485Z,101889.55
2018-12-25T20:32:58.848Z,101843.96
2018-12-25T20:36:06.163Z,101847.53
2018-12-25T20:39:20.266Z,101847.23
2018-12-25T21:34:04.003Z,101839.73
2018-12-25T21:42:10.807Z,101809.66
2018-12-25T21:55:21.583Z,101835.04
2018-12-25T21:57:51.870Z,101833.93
2018-12-25T22:00:22.551Z,101845.06
2018-12-25T22:02:52.493Z,101833.20
2018-12-25T22:06:01.093Z,101833.37
2018-12-25T22:08:31.180Z,101841.41
2018-12-25T22:11:00.425Z,101836.78
2018-12-25T22:13:29.896Z,101835.41
2018-12-25T22:16:01.388Z,101847.05
2018-12-25T22:18:31.227Z,101849.81
2018-12-25T22:21:00.440Z,101844.82
2018-12-25T22:23:29.646Z,101835.34
2018-12-25T22:25:59.198Z,101838.70
2018-12-25T22:28:28.757Z,101833.78
2018-12-25T22:30:58.249Z,101830.23
2018-12-25T22:33:27.549Z,101831.64
2018-12-25T22:35:57.058Z,101827.69
2018-12-25T22:38:26.253Z,101804.33
2018-12-25T22:40:55.752Z,101814.45
2018-12-25T22:43:25.242Z,101818.07
2018-12-25T22:45:54.504Z,101821.92
2018-12-25T22:48:24.054Z,101814.23
2018-12-25T22:50:53.726Z,101818.44
2018-12-25T22:53:22.922Z,101807.17
2018-12-25T22:55:52.695Z,101812.90
2018-12-25T22:58:21.900Z,101817.14
2018-12-25T23:22:44.467Z,101788.31
2018-12-25T23:25:14.003Z,101789.39
2018-12-25T23:27:43.207Z,101793.75
2018-12-25T23:30:12.422Z,101792.86
2018-12-25T23:32:41.877Z,101791.38
2018-12-25T23:35:11.513Z,101798.66
2018-12-25T23:37:41.013Z,101794.64
2018-12-25T23:40:10.238Z,101804.09
2018-12-25T23:42:39.985Z,101796.93
2018-12-25T23:45:09.488Z,101798.25
2018-12-25T23:47:38.704Z,101791.41
2018-12-25T23:50:08.182Z,101798.59
2018-12-25T23:52:37.951Z,101790.52
2018-12-25T23:55:07.189Z,101800.77
2018-12-25T23:57:36.650Z,101801.86
